Napa, California
Current Conditions -  °F | °C
As of 2:54 PM on Saturday 25 Oct 2014 (Local Time) from KAPC Reporting Station
Overcast Overcast  
Wind Chill: 71°   Ceiling: 4300
Heat Index: 71°   Visibility: 10mi
Dew Point: 57°   Wind: 18mph
Humidity: 61%   Direction: 210°SSW
Pressure: 30.03"   Gusts: 26mph
Location:  38.3°N, 122.28°W
Report Text: KAPC 252154Z 21016G23KT 10SM BKN043 OVC055 22/14 A3003 RMK AO2 SLP159 T02170139
Loading
Personal Weather Stations






























Interactive Weather Map
Tropical Storm Tracking
New forecast layout! Learn more

10-Day Weather Forecast

Advertisements
Track Severe Weather on mobile